sensor_id;sensor_type;location;lat;lon;timestamp;pressure;altitude;pressure_sealevel;temperature;humidity
75617;BME280;64200;55.426;37.758;2023-05-07T00:02:57;100297.84;;;1.44;53.24
75617;BME280;64200;55.426;37.758;2023-05-07T00:07:57;100307.63;;;1.42;53.45
75617;BME280;64200;55.426;37.758;2023-05-07T00:12:58;100303.69;;;1.35;53.95
75617;BME280;64200;55.426;37.758;2023-05-07T00:17:58;100301.34;;;1.37;53.51
75617;BME280;64200;55.426;37.758;2023-05-07T00:22:59;100314.25;;;1.26;54.11
75617;BME280;64200;55.426;37.758;2023-05-07T00:28:00;100310.72;;;1.26;54.35
75617;BME280;64200;55.426;37.758;2023-05-07T00:33:03;100308.34;;;1.20;53.58
75617;BME280;64200;55.426;37.758;2023-05-07T00:38:04;100322.09;;;1.24;54.53
75617;BME280;64200;55.426;37.758;2023-05-07T00:43:05;100315.81;;;1.20;54.40
75617;BME280;64200;55.426;37.758;2023-05-07T00:48:06;100309.84;;;1.11;54.86
75617;BME280;64200;55.426;37.758;2023-05-07T00:53:07;100314.59;;;1.14;54.59
75617;BME280;64200;55.426;37.758;2023-05-07T00:58:08;100319.25;;;1.06;55.05
75617;BME280;64200;55.426;37.758;2023-05-07T01:03:08;100312.56;;;1.03;54.40
75617;BME280;64200;55.426;37.758;2023-05-07T01:08:09;100311.78;;;1.07;55.75
75617;BME280;64200;55.426;37.758;2023-05-07T01:13:12;100323.56;;;1.03;55.71
75617;BME280;64200;55.426;37.758;2023-05-07T01:18:13;100322.34;;;0.97;55.80
75617;BME280;64200;55.426;37.758;2023-05-07T01:23:15;100334.50;;;0.93;56.07
75617;BME280;64200;55.426;37.758;2023-05-07T01:28:16;100339.16;;;0.88;56.29
75617;BME280;64200;55.426;37.758;2023-05-07T01:33:19;100336.75;;;0.76;57.42
75617;BME280;64200;55.426;37.758;2023-05-07T01:38:22;100337.94;;;0.82;56.42
75617;BME280;64200;55.426;37.758;2023-05-07T01:43:23;100343.88;;;0.84;56.76
75617;BME280;64200;55.426;37.758;2023-05-07T01:48:24;100356.78;;;0.84;56.74
75617;BME280;64200;55.426;37.758;2023-05-07T01:53:27;100359.84;;;0.72;56.99
75617;BME280;64200;55.426;37.758;2023-05-07T01:58:28;100366.56;;;0.78;57.57
75617;BME280;64200;55.426;37.758;2023-05-07T02:03:28;100370.47;;;0.77;57.01
75617;BME280;64200;55.426;37.758;2023-05-07T02:08:29;100363.00;;;0.74;56.70
75617;BME280;64200;55.426;37.758;2023-05-07T02:13:32;100373.25;;;0.80;56.76
75617;BME280;64200;55.426;37.758;2023-05-07T02:18:33;100372.88;;;0.82;56.74
75617;BME280;64200;55.426;37.758;2023-05-07T02:23:33;100378.75;;;0.80;56.83
75617;BME280;64200;55.426;37.758;2023-05-07T02:28:34;100379.56;;;0.84;57.26
75617;BME280;64200;55.426;37.758;2023-05-07T02:33:37;100394.13;;;0.92;56.78
75617;BME280;64200;55.426;37.758;2023-05-07T02:38:38;100394.97;;;0.96;57.11
75617;BME280;64200;55.426;37.758;2023-05-07T02:43:38;100392.66;;;1.09;57.31
75617;BME280;64200;55.426;37.758;2023-05-07T02:48:39;100404.09;;;1.11;57.93
75617;BME280;64200;55.426;37.758;2023-05-07T02:53:39;100412.00;;;1.20;57.60
75617;BME280;64200;55.426;37.758;2023-05-07T02:58:40;100409.25;;;1.27;57.16
75617;BME280;64200;55.426;37.758;2023-05-07T03:03:42;100408.50;;;1.30;56.85
75617;BME280;64200;55.426;37.758;2023-05-07T03:08:43;100418.38;;;1.38;57.32
75617;BME280;64200;55.426;37.758;2023-05-07T03:13:44;100428.69;;;1.56;56.65
75617;BME280;64200;55.426;37.758;2023-05-07T03:18:45;100428.28;;;1.57;56.98
75617;BME280;64200;55.426;37.758;2023-05-07T03:23:45;100425.97;;;1.63;57.08
75617;BME280;64200;55.426;37.758;2023-05-07T03:28:46;100435.06;;;1.82;56.81
75617;BME280;64200;55.426;37.758;2023-05-07T03:33:57;100444.16;;;1.97;56.74
75617;BME280;64200;55.426;37.758;2023-05-07T03:38:57;100444.22;;;2.15;55.71
75617;BME280;64200;55.426;37.758;2023-05-07T03:43:58;100443.06;;;2.26;55.94
75617;BME280;64200;55.426;37.758;2023-05-07T03:48:58;100451.81;;;2.61;56.08
75617;BME280;64200;55.426;37.758;2023-05-07T03:53:59;100446.31;;;2.68;55.48
75617;BME280;64200;55.426;37.758;2023-05-07T03:59:02;100446.69;;;2.74;54.96
75617;BME280;64200;55.426;37.758;2023-05-07T04:04:02;100458.09;;;2.97;54.64
75617;BME280;64200;55.426;37.758;2023-05-07T04:09:04;100461.28;;;3.07;55.40
75617;BME280;64200;55.426;37.758;2023-05-07T04:14:05;100460.06;;;3.29;54.21
75617;BME280;64200;55.426;37.758;2023-05-07T04:19:05;100462.78;;;3.47;53.24
75617;BME280;64200;55.426;37.758;2023-05-07T04:24:06;100456.91;;;3.38;53.58
75617;BME280;64200;55.426;37.758;2023-05-07T04:29:06;100468.69;;;3.60;53.07
75617;BME280;64200;55.426;37.758;2023-05-07T04:34:07;100478.41;;;3.94;53.67
75617;BME280;64200;55.426;37.758;2023-05-07T04:39:07;100477.59;;;4.08;53.26
75617;BME280;64200;55.426;37.758;2023-05-07T04:44:08;100483.47;;;4.17;53.33
75617;BME280;64200;55.426;37.758;2023-05-07T04:49:09;100482.59;;;4.34;51.77
75617;BME280;64200;55.426;37.758;2023-05-07T04:54:11;100471.16;;;4.32;52.01
75617;BME280;64200;55.426;37.758;2023-05-07T04:59:12;100485.56;;;4.65;51.97
75617;BME280;64200;55.426;37.758;2023-05-07T05:04:12;100484.72;;;4.75;51.26
75617;BME280;64200;55.426;37.758;2023-05-07T05:09:13;100494.41;;;4.98;50.82
75617;BME280;64200;55.426;37.758;2023-05-07T05:14:14;100497.03;;;5.20;49.98
75617;BME280;64200;55.426;37.758;2023-05-07T05:19:15;100513.38;;;5.00;48.24
75617;BME280;64200;55.426;37.758;2023-05-07T05:24:15;100505.94;;;4.89;47.05
75617;BME280;64200;55.426;37.758;2023-05-07T05:29:16;100508.41;;;5.25;48.69
75617;BME280;64200;55.426;37.758;2023-05-07T05:34:16;100501.69;;;5.26;47.08
75617;BME280;64200;55.426;37.758;2023-05-07T05:39:19;100506.84;;;5.24;47.80
75617;BME280;64200;55.426;37.758;2023-05-07T05:44:21;100516.81;;;5.15;46.59
75617;BME280;64200;55.426;37.758;2023-05-07T05:49:22;100516.06;;;5.07;45.18
75617;BME280;64200;55.426;37.758;2023-05-07T05:54:23;100511.84;;;5.40;45.93
75617;BME280;64200;55.426;37.758;2023-05-07T05:59:23;100523.44;;;6.08;45.40
75617;BME280;64200;55.426;37.758;2023-05-07T06:04:24;100519.50;;;6.40;44.06
75617;BME280;64200;55.426;37.758;2023-05-07T06:09:24;100529.59;;;6.54;41.87
75617;BME280;64200;55.426;37.758;2023-05-07T06:14:25;100536.56;;;6.35;40.55
75617;BME280;64200;55.426;37.758;2023-05-07T06:19:25;100528.22;;;6.38;41.54
75617;BME280;64200;55.426;37.758;2023-05-07T06:24:28;100535.09;;;6.57;40.95
75617;BME280;64200;55.426;37.758;2023-05-07T06:29:29;100535.06;;;6.88;39.51
75617;BME280;64200;55.426;37.758;2023-05-07T06:34:31;100519.38;;;7.29;37.52
75617;BME280;64200;55.426;37.758;2023-05-07T06:39:32;100525.97;;;8.79;35.93
75617;BME280;64200;55.426;37.758;2023-05-07T06:44:33;100535.06;;;9.95;34.88
75617;BME280;64200;55.426;37.758;2023-05-07T06:49:33;100525.06;;;9.81;32.07
75617;BME280;64200;55.426;37.758;2023-05-07T06:54:34;100531.84;;;9.34;33.11
75617;BME280;64200;55.426;37.758;2023-05-07T06:59:35;100540.13;;;9.05;33.15
75617;BME280;64200;55.426;37.758;2023-05-07T07:04:35;100536.81;;;10.60;33.54
75617;BME280;64200;55.426;37.758;2023-05-07T07:09:36;100546.22;;;11.66;29.64
75617;BME280;64200;55.426;37.758;2023-05-07T07:14:36;100529.66;;;11.71;29.67
75617;BME280;64200;55.426;37.758;2023-05-07T07:19:37;100541.53;;;12.42;29.18
75617;BME280;64200;55.426;37.758;2023-05-07T07:24:39;100526.81;;;12.28;26.73
75617;BME280;64200;55.426;37.758;2023-05-07T07:29:39;100540.94;;;10.68;28.59
75617;BME280;64200;55.426;37.758;2023-05-07T07:34:40;100529.25;;;9.89;30.13
75617;BME280;64200;55.426;37.758;2023-05-07T07:39:42;100538.22;;;10.39;30.41
75617;BME280;64200;55.426;37.758;2023-05-07T07:44:43;100536.38;;;11.61;28.54
75617;BME280;64200;55.426;37.758;2023-05-07T07:49:43;100537.31;;;12.15;28.57
75617;BME280;64200;55.426;37.758;2023-05-07T07:54:44;100530.88;;;12.90;28.46
75617;BME280;64200;55.426;37.758;2023-05-07T07:59:45;100535.09;;;15.23;27.06
75617;BME280;64200;55.426;37.758;2023-05-07T08:04:45;100535.22;;;17.47;22.35
75617;BME280;64200;55.426;37.758;2023-05-07T08:09:46;100536.31;;;18.43;20.24
75617;BME280;64200;55.426;37.758;2023-05-07T08:14:47;100528.78;;;15.13;20.27
75617;BME280;64200;55.426;37.758;2023-05-07T08:19:48;100521.66;;;12.49;22.63
75617;BME280;64200;55.426;37.758;2023-05-07T08:24:48;100539.97;;;13.72;23.93
75617;BME280;64200;55.426;37.758;2023-05-07T08:29:49;100535.16;;;18.87;21.13
75617;BME280;64200;55.426;37.758;2023-05-07T08:34:50;100530.03;;;19.23;17.14
75617;BME280;64200;55.426;37.758;2023-05-07T08:39:50;100519.28;;;17.64;19.06
75617;BME280;64200;55.426;37.758;2023-05-07T08:44:51;100519.66;;;14.85;19.64
75617;BME280;64200;55.426;37.758;2023-05-07T08:49:56;100526.44;;;13.11;21.22
75617;BME280;64200;55.426;37.758;2023-05-07T08:54:56;100521.84;;;12.01;23.10
75617;BME280;64200;55.426;37.758;2023-05-07T08:59:57;100527.19;;;18.86;21.05
75617;BME280;64200;55.426;37.758;2023-05-07T09:04:57;100546.84;;;24.00;15.69
75617;BME280;64200;55.426;37.758;2023-05-07T09:09:58;100529.50;;;24.49;12.03
75617;BME280;64200;55.426;37.758;2023-05-07T09:14:59;100523.88;;;19.30;13.93
75617;BME280;64200;55.426;37.758;2023-05-07T09:20:04;100519.09;;;16.16;17.02
75617;BME280;64200;55.426;37.758;2023-05-07T09:25:08;100507.16;;;16.51;18.96
75617;BME280;64200;55.426;37.758;2023-05-07T09:30:09;100535.44;;;24.97;12.90
75617;BME280;64200;55.426;37.758;2023-05-07T09:35:17;100529.25;;;27.27;10.36
75617;BME280;64200;55.426;37.758;2023-05-07T09:40:26;100525.22;;;23.23;11.23
75617;BME280;64200;55.426;37.758;2023-05-07T09:45:28;100516.28;;;17.47;14.45
75617;BME280;64200;55.426;37.758;2023-05-07T09:50:32;100521.25;;;16.22;16.55
75617;BME280;64200;55.426;37.758;2023-05-07T09:55:37;100504.53;;;16.03;17.20
75617;BME280;64200;55.426;37.758;2023-05-07T10:00:39;100516.31;;;18.78;17.57
75617;BME280;64200;55.426;37.758;2023-05-07T10:05:40;100537.28;;;26.36;12.49
75617;BME280;64200;55.426;37.758;2023-05-07T10:10:42;100543.06;;;28.25;11.38
75617;BME280;64200;55.426;37.758;2023-05-07T10:15:44;100550.38;;;31.31;9.23
75617;BME280;64200;55.426;37.758;2023-05-07T10:20:45;100536.59;;;30.62;8.73
75617;BME280;64200;55.426;37.758;2023-05-07T10:25:47;100523.53;;;22.84;10.02
75617;BME280;64200;55.426;37.758;2023-05-07T10:36:00;100532.56;;;28.35;10.53
75617;BME280;64200;55.426;37.758;2023-05-07T10:41:02;100521.94;;;27.47;7.80
75617;BME280;64200;55.426;37.758;2023-05-07T10:46:18;100527.38;;;20.74;10.86
75617;BME280;64200;55.426;37.758;2023-05-07T10:51:21;100521.84;;;18.03;12.76
75617;BME280;64200;55.426;37.758;2023-05-07T11:01:49;100532.44;;;25.49;10.05
75617;BME280;64200;55.426;37.758;2023-05-07T11:12:08;100529.94;;;29.06;8.72
75617;BME280;64200;55.426;37.758;2023-05-07T11:17:09;100539.03;;;28.04;7.55
75617;BME280;64200;55.426;37.758;2023-05-07T11:27:36;100512.47;;;18.76;13.59
75617;BME280;64200;55.426;37.758;2023-05-07T11:32:37;100535.53;;;27.25;9.17
75617;BME280;64200;55.426;37.758;2023-05-07T11:37:38;100531.47;;;28.69;7.94
75617;BME280;64200;55.426;37.758;2023-05-07T11:42:40;100512.88;;;22.23;9.92
75617;BME280;64200;55.426;37.758;2023-05-07T11:47:42;100517.34;;;18.43;12.97
75617;BME280;64200;55.426;37.758;2023-05-07T11:52:51;100512.63;;;17.41;13.29
75617;BME280;64200;55.426;37.758;2023-05-07T11:57:52;100512.56;;;19.96;14.39
75617;BME280;64200;55.426;37.758;2023-05-07T12:02:53;100530.72;;;24.86;10.15
75617;BME280;64200;55.426;37.758;2023-05-07T12:07:56;100534.41;;;25.67;8.74
75617;BME280;64200;55.426;37.758;2023-05-07T12:12:57;100508.06;;;19.61;11.18
75617;BME280;64200;55.426;37.758;2023-05-07T12:17:58;100509.34;;;17.07;13.00
75617;BME280;64200;55.426;37.758;2023-05-07T12:22:58;100514.22;;;15.87;14.02
75617;BME280;64200;55.426;37.758;2023-05-07T12:28:00;100502.66;;;14.88;15.00
75617;BME280;64200;55.426;37.758;2023-05-07T12:33:01;100499.81;;;14.98;15.14
75617;BME280;64200;55.426;37.758;2023-05-07T12:38:01;100490.19;;;15.38;15.60
75617;BME280;64200;55.426;37.758;2023-05-07T12:43:04;100499.88;;;15.13;15.72
75617;BME280;64200;55.426;37.758;2023-05-07T12:48:05;100494.34;;;14.51;15.86
75617;BME280;64200;55.426;37.758;2023-05-07T12:53:08;100477.50;;;13.99;16.17
75617;BME280;64200;55.426;37.758;2023-05-07T12:58:14;100495.25;;;13.87;16.52
75617;BME280;64200;55.426;37.758;2023-05-07T13:03:30;100495.25;;;14.05;17.53
75617;BME280;64200;55.426;37.758;2023-05-07T13:08:33;100493.16;;;14.34;17.51
75617;BME280;64200;55.426;37.758;2023-05-07T13:13:35;100499.72;;;14.31;16.99
75617;BME280;64200;55.426;37.758;2023-05-07T13:18:38;100494.25;;;14.36;16.94
75617;BME280;64200;55.426;37.758;2023-05-07T13:23:39;100491.47;;;14.79;16.82
75617;BME280;64200;55.426;37.758;2023-05-07T13:28:40;100508.69;;;14.53;16.73
75617;BME280;64200;55.426;37.758;2023-05-07T13:33:42;100505.91;;;14.44;16.56
75617;BME280;64200;55.426;37.758;2023-05-07T13:38:42;100502.31;;;14.53;16.72
75617;BME280;64200;55.426;37.758;2023-05-07T13:43:43;100507.91;;;14.53;17.31
75617;BME280;64200;55.426;37.758;2023-05-07T13:48:44;100502.41;;;14.07;17.07
75617;BME280;64200;55.426;37.758;2023-05-07T13:53:46;100495.56;;;13.61;17.28
75617;BME280;64200;55.426;37.758;2023-05-07T13:58:46;100504.28;;;13.35;17.27
75617;BME280;64200;55.426;37.758;2023-05-07T14:03:47;100492.13;;;12.89;18.06
75617;BME280;64200;55.426;37.758;2023-05-07T14:08:47;100489.19;;;12.52;18.43
75617;BME280;64200;55.426;37.758;2023-05-07T14:13:48;100505.97;;;11.98;19.29
75617;BME280;64200;55.426;37.758;2023-05-07T14:18:48;100497.94;;;11.87;19.93
75617;BME280;64200;55.426;37.758;2023-05-07T14:23:49;100500.19;;;11.80;19.64
75617;BME280;64200;55.426;37.758;2023-05-07T14:28:49;100498.75;;;12.10;19.27
75617;BME280;64200;55.426;37.758;2023-05-07T14:33:50;100499.41;;;12.14;19.37
75617;BME280;64200;55.426;37.758;2023-05-07T14:38:50;100501.91;;;11.77;19.71
75617;BME280;64200;55.426;37.758;2023-05-07T14:43:51;100494.78;;;11.63;19.13
75617;BME280;64200;55.426;37.758;2023-05-07T14:48:52;100497.59;;;11.98;20.05
75617;BME280;64200;55.426;37.758;2023-05-07T14:53:53;100491.97;;;12.20;19.43
75617;BME280;64200;55.426;37.758;2023-05-07T14:58:53;100492.06;;;12.39;19.66
75617;BME280;64200;55.426;37.758;2023-05-07T15:03:54;100485.75;;;12.16;19.41
75617;BME280;64200;55.426;37.758;2023-05-07T15:08:55;100502.75;;;11.87;19.79
75617;BME280;64200;55.426;37.758;2023-05-07T15:13:56;100493.66;;;11.38;20.50
75617;BME280;64200;55.426;37.758;2023-05-07T15:18:56;100498.91;;;11.23;20.53
75617;BME280;64200;55.426;37.758;2023-05-07T15:23:57;100496.75;;;10.93;21.38
75617;BME280;64200;55.426;37.758;2023-05-07T15:28:57;100493.72;;;10.74;21.90
75617;BME280;64200;55.426;37.758;2023-05-07T15:33:59;100498.66;;;10.57;21.68
75617;BME280;64200;55.426;37.758;2023-05-07T15:39:01;100500.00;;;10.91;21.77
75617;BME280;64200;55.426;37.758;2023-05-07T15:44:03;100493.38;;;11.11;21.50
75617;BME280;64200;55.426;37.758;2023-05-07T15:49:03;100496.63;;;10.96;21.12
75617;BME280;64200;55.426;37.758;2023-05-07T15:54:04;100501.88;;;10.68;21.37
75617;BME280;64200;55.426;37.758;2023-05-07T15:59:05;100499.19;;;10.52;21.61
75617;BME280;64200;55.426;37.758;2023-05-07T16:04:06;100504.97;;;10.45;21.78
75617;BME280;64200;55.426;37.758;2023-05-07T16:09:07;100494.31;;;10.27;22.13
75617;BME280;64200;55.426;37.758;2023-05-07T16:14:09;100511.38;;;10.29;22.22
75617;BME280;64200;55.426;37.758;2023-05-07T16:19:09;100509.22;;;10.36;22.29
75617;BME280;64200;55.426;37.758;2023-05-07T16:24:10;100509.28;;;10.33;22.19
75617;BME280;64200;55.426;37.758;2023-05-07T16:29:11;100510.16;;;10.30;22.12
75617;BME280;64200;55.426;37.758;2023-05-07T16:34:11;100502.91;;;10.19;22.59
75617;BME280;64200;55.426;37.758;2023-05-07T16:39:13;100506.97;;;10.02;22.73
75617;BME280;64200;55.426;37.758;2023-05-07T16:44:14;100516.47;;;9.75;23.44
75617;BME280;64200;55.426;37.758;2023-05-07T16:49:14;100519.38;;;9.55;23.38
75617;BME280;64200;55.426;37.758;2023-05-07T16:54:15;100517.56;;;9.48;23.32
75617;BME280;64200;55.426;37.758;2023-05-07T16:59:15;100521.31;;;9.42;23.70
75617;BME280;64200;55.426;37.758;2023-05-07T17:04:17;100511.31;;;9.28;24.13
75617;BME280;64200;55.426;37.758;2023-05-07T17:09:17;100529.00;;;9.21;24.51
75617;BME280;64200;55.426;37.758;2023-05-07T17:14:18;100534.63;;;9.18;24.87
75617;BME280;64200;55.426;37.758;2023-05-07T17:19:18;100531.50;;;9.16;25.21
75617;BME280;64200;55.426;37.758;2023-05-07T17:24:19;100532.03;;;9.10;25.23
75617;BME280;64200;55.426;37.758;2023-05-07T17:29:20;100522.63;;;9.04;25.09
75617;BME280;64200;55.426;37.758;2023-05-07T17:34:22;100540.78;;;9.09;25.07
75617;BME280;64200;55.426;37.758;2023-05-07T17:39:23;100535.13;;;8.79;24.95
75617;BME280;64200;55.426;37.758;2023-05-07T17:44:23;100539.16;;;8.58;25.89
75617;BME280;64200;55.426;37.758;2023-05-07T17:49:24;100544.50;;;8.49;26.27
75617;BME280;64200;55.426;37.758;2023-05-07T17:54:25;100541.22;;;8.34;26.38
75617;BME280;64200;55.426;37.758;2023-05-07T17:59:27;100540.22;;;8.24;26.55
75617;BME280;64200;55.426;37.758;2023-05-07T18:04:27;100553.56;;;8.13;27.09
75617;BME280;64200;55.426;37.758;2023-05-07T18:09:28;100537.25;;;7.95;27.30
75617;BME280;64200;55.426;37.758;2023-05-07T18:14:28;100548.41;;;7.91;27.81
75617;BME280;64200;55.426;37.758;2023-05-07T18:19:29;100558.03;;;7.87;27.69
75617;BME280;64200;55.426;37.758;2023-05-07T18:24:30;100551.81;;;7.79;27.58
75617;BME280;64200;55.426;37.758;2023-05-07T18:29:31;100560.56;;;7.78;28.16
75617;BME280;64200;55.426;37.758;2023-05-07T18:34:31;100557.41;;;7.76;27.74
75617;BME280;64200;55.426;37.758;2023-05-07T18:39:34;100563.06;;;7.72;27.65
75617;BME280;64200;55.426;37.758;2023-05-07T18:44:34;100561.59;;;7.64;27.86
75617;BME280;64200;55.426;37.758;2023-05-07T18:49:38;100564.53;;;7.56;27.72
75617;BME280;64200;55.426;37.758;2023-05-07T18:54:38;100568.78;;;7.37;28.45
75617;BME280;64200;55.426;37.758;2023-05-07T18:59:39;100562.00;;;7.15;28.84
75617;BME280;64200;55.426;37.758;2023-05-07T19:04:39;100575.44;;;7.16;28.34
75617;BME280;64200;55.426;37.758;2023-05-07T19:09:40;100565.56;;;7.15;28.74
75617;BME280;64200;55.426;37.758;2023-05-07T19:14:41;100578.28;;;7.13;28.47
75617;BME280;64200;55.426;37.758;2023-05-07T19:19:42;100584.59;;;7.13;29.24
75617;BME280;64200;55.426;37.758;2023-05-07T19:24:48;100582.25;;;7.12;29.33
75617;BME280;64200;55.426;37.758;2023-05-07T19:29:48;100587.50;;;7.06;29.46
75617;BME280;64200;55.426;37.758;2023-05-07T19:34:49;100584.88;;;6.95;29.50
75617;BME280;64200;55.426;37.758;2023-05-07T19:39:51;100584.03;;;6.71;29.97
75617;BME280;64200;55.426;37.758;2023-05-07T19:44:51;100599.97;;;6.63;30.18
75617;BME280;64200;55.426;37.758;2023-05-07T19:49:52;100597.72;;;6.51;30.43
75617;BME280;64200;55.426;37.758;2023-05-07T19:54:52;100605.69;;;6.49;30.35
75617;BME280;64200;55.426;37.758;2023-05-07T19:59:53;100599.91;;;6.36;30.37
75617;BME280;64200;55.426;37.758;2023-05-07T20:04:54;100612.50;;;6.41;30.80
75617;BME280;64200;55.426;37.758;2023-05-07T20:09:54;100609.00;;;6.37;30.58
75617;BME280;64200;55.426;37.758;2023-05-07T20:14:55;100610.63;;;6.34;30.85
75617;BME280;64200;55.426;37.758;2023-05-07T20:19:55;100620.59;;;6.24;31.44
75617;BME280;64200;55.426;37.758;2023-05-07T20:24:56;100622.63;;;6.20;31.95
75617;BME280;64200;55.426;37.758;2023-05-07T20:29:57;100626.28;;;6.10;31.76
75617;BME280;64200;55.426;37.758;2023-05-07T20:34:57;100628.34;;;6.06;32.61
75617;BME280;64200;55.426;37.758;2023-05-07T20:39:58;100627.94;;;6.04;33.13
75617;BME280;64200;55.426;37.758;2023-05-07T20:45:00;100637.06;;;6.04;32.96
75617;BME280;64200;55.426;37.758;2023-05-07T20:50:01;100638.66;;;5.98;33.17
75617;BME280;64200;55.426;37.758;2023-05-07T20:55:03;100652.53;;;5.94;33.39
75617;BME280;64200;55.426;37.758;2023-05-07T21:00:04;100649.47;;;5.85;33.34
75617;BME280;64200;55.426;37.758;2023-05-07T21:05:05;100655.41;;;5.80;33.51
75617;BME280;64200;55.426;37.758;2023-05-07T21:10:06;100648.34;;;5.75;33.96
75617;BME280;64200;55.426;37.758;2023-05-07T21:15:07;100655.47;;;5.76;33.53
75617;BME280;64200;55.426;37.758;2023-05-07T21:20:08;100665.81;;;5.69;34.08
75617;BME280;64200;55.426;37.758;2023-05-07T21:25:09;100673.34;;;5.65;33.99
75617;BME280;64200;55.426;37.758;2023-05-07T21:30:10;100664.28;;;5.60;34.50
75617;BME280;64200;55.426;37.758;2023-05-07T21:35:10;100674.97;;;5.58;34.18
75617;BME280;64200;55.426;37.758;2023-05-07T21:40:11;100684.09;;;5.55;34.33
75617;BME280;64200;55.426;37.758;2023-05-07T21:45:12;100679.75;;;5.51;34.70
75617;BME280;64200;55.426;37.758;2023-05-07T21:50:12;100687.28;;;5.50;34.23
75617;BME280;64200;55.426;37.758;2023-05-07T21:55:13;100691.25;;;5.45;34.91
75617;BME280;64200;55.426;37.758;2023-05-07T22:00:14;100682.22;;;5.34;34.47
75617;BME280;64200;55.426;37.758;2023-05-07T22:05:15;100683.44;;;5.30;34.48
75617;BME280;64200;55.426;37.758;2023-05-07T22:10:16;100687.06;;;5.23;34.27
75617;BME280;64200;55.426;37.758;2023-05-07T22:15:20;100696.53;;;5.22;35.38
75617;BME280;64200;55.426;37.758;2023-05-07T22:20:21;100692.22;;;5.14;35.09
75617;BME280;64200;55.426;37.758;2023-05-07T22:25:23;100691.06;;;5.07;35.48
75617;BME280;64200;55.426;37.758;2023-05-07T22:30:23;100689.91;;;5.01;35.45
75617;BME280;64200;55.426;37.758;2023-05-07T22:35:24;100696.59;;;5.07;34.91
75617;BME280;64200;55.426;37.758;2023-05-07T22:40:25;100705.78;;;4.86;36.60
75617;BME280;64200;55.426;37.758;2023-05-07T22:45:25;100700.69;;;4.78;36.74
75617;BME280;64200;55.426;37.758;2023-05-07T22:50:26;100701.94;;;4.62;36.86
75617;BME280;64200;55.426;37.758;2023-05-07T22:55:26;100696.41;;;4.58;36.96
75617;BME280;64200;55.426;37.758;2023-05-07T23:00:27;100695.59;;;4.54;37.40
75617;BME280;64200;55.426;37.758;2023-05-07T23:05:28;100694.84;;;4.57;38.39
75617;BME280;64200;55.426;37.758;2023-05-07T23:10:28;100686.94;;;4.52;37.55
75617;BME280;64200;55.426;37.758;2023-05-07T23:15:29;100692.09;;;4.47;38.21
75617;BME280;64200;55.426;37.758;2023-05-07T23:20:30;100699.63;;;4.35;38.10
75617;BME280;64200;55.426;37.758;2023-05-07T23:25:31;100701.97;;;4.26;38.68
75617;BME280;64200;55.426;37.758;2023-05-07T23:30:31;100707.94;;;4.14;39.31
75617;BME280;64200;55.426;37.758;2023-05-07T23:35:32;100687.03;;;3.98;39.19
75617;BME280;64200;55.426;37.758;2023-05-07T23:40:32;100708.72;;;3.96;39.62
75617;BME280;64200;55.426;37.758;2023-05-07T23:45:33;100705.16;;;3.89;39.51
75617;BME280;64200;55.426;37.758;2023-05-07T23:50:34;100700.81;;;3.80;39.37
75617;BME280;64200;55.426;37.758;2023-05-07T23:55:34;100702.00;;;3.72;40.99
